createdAt,value
2023-01-22T00:00:08.289Z,19.63
2023-01-22T00:01:08.978Z,19.63
2023-01-22T00:02:09.656Z,19.51
2023-01-22T00:03:10.311Z,19.55
2023-01-22T00:04:10.915Z,19.54
2023-01-22T00:05:11.512Z,19.55
2023-01-22T00:06:12.113Z,19.41
2023-01-22T00:07:12.708Z,19.44
2023-01-22T00:08:13.324Z,19.55
2023-01-22T00:09:13.910Z,19.48
2023-01-22T00:10:14.568Z,19.47
2023-01-22T00:11:15.201Z,19.47
2023-01-22T00:12:15.800Z,19.48
2023-01-22T00:13:16.510Z,19.47
2023-01-22T00:14:17.126Z,19.45
2023-01-22T00:15:17.727Z,19.44
2023-01-22T00:16:18.416Z,19.44
2023-01-22T00:17:19.029Z,19.40
2023-01-22T00:18:19.633Z,19.34
2023-01-22T00:19:20.228Z,19.37
2023-01-22T00:20:21.016Z,19.30
2023-01-22T00:21:22.407Z,19.36
2023-01-22T00:22:23.020Z,19.41
2023-01-22T00:23:23.676Z,19.26
2023-01-22T00:24:24.276Z,19.31
2023-01-22T00:25:24.942Z,19.31
2023-01-22T00:26:25.550Z,19.30
2023-01-22T00:27:26.136Z,19.31
2023-01-22T00:28:26.743Z,19.27
2023-01-22T00:29:27.488Z,19.26
2023-01-22T00:30:28.901Z,19.22
2023-01-22T00:31:29.614Z,19.26
2023-01-22T00:32:30.276Z,19.21
2023-01-22T00:33:30.882Z,19.21
2023-01-22T00:34:31.523Z,19.21
2023-01-22T00:35:32.236Z,19.22
2023-01-22T00:36:32.830Z,19.18
2023-01-22T00:37:33.426Z,19.18
2023-01-22T00:38:34.025Z,19.21
2023-01-22T00:39:34.627Z,19.14
2023-01-22T00:40:35.225Z,19.29
2023-01-22T00:41:35.821Z,19.21
2023-01-22T00:42:36.433Z,19.14
2023-01-22T00:43:37.022Z,19.15
2023-01-22T00:44:37.636Z,19.18
2023-01-22T00:45:38.232Z,19.15
2023-01-22T00:46:38.868Z,19.12
2023-01-22T00:47:39.491Z,19.15
2023-01-22T00:48:40.144Z,19.12
2023-01-22T00:49:40.737Z,19.12
2023-01-22T00:50:42.143Z,19.11
2023-01-22T00:51:42.737Z,19.12
2023-01-22T00:52:43.342Z,19.07
2023-01-22T00:53:43.986Z,18.98
2023-01-22T00:54:44.574Z,19.07
2023-01-22T00:55:45.167Z,19.14
2023-01-22T00:56:45.772Z,19.07
2023-01-22T00:57:46.367Z,19.00
2023-01-22T00:58:46.971Z,19.07
2023-01-22T00:59:47.565Z,18.96
2023-01-22T01:00:48.221Z,18.99
2023-01-22T01:01:48.866Z,18.98
2023-01-22T01:02:49.506Z,19.00
2023-01-22T01:03:50.248Z,18.98
2023-01-22T01:04:50.850Z,19.00
2023-01-22T01:05:51.444Z,18.86
2023-01-22T01:06:52.046Z,18.89
2023-01-22T01:07:52.718Z,18.98
2023-01-22T01:08:53.321Z,18.86
2023-01-22T01:09:53.921Z,18.90
2023-01-22T01:10:54.516Z,18.93
2023-01-22T01:11:55.110Z,18.90
2023-01-22T01:12:55.799Z,18.84
2023-01-22T01:13:56.375Z,18.88
2023-01-22T01:14:56.983Z,18.90
2023-01-22T01:15:57.588Z,18.90
2023-01-22T01:16:58.989Z,18.88
2023-01-22T01:17:59.684Z,18.90
2023-01-22T01:19:00.303Z,18.83
2023-01-22T01:20:00.950Z,18.90
2023-01-22T01:21:01.571Z,18.77
2023-01-22T01:22:02.218Z,18.80
2023-01-22T01:23:02.820Z,18.80
2023-01-22T01:24:03.437Z,18.86
2023-01-22T01:25:04.035Z,18.83
2023-01-22T01:26:04.630Z,18.78
2023-01-22T01:27:05.296Z,18.78
2023-01-22T01:28:05.968Z,18.80
2023-01-22T01:29:06.547Z,18.83
2023-01-22T01:30:07.155Z,18.77
2023-01-22T01:31:07.843Z,18.74
2023-01-22T01:32:08.487Z,18.80
2023-01-22T01:33:09.089Z,18.73
2023-01-22T01:34:09.682Z,18.78
2023-01-22T01:35:10.296Z,18.70
2023-01-22T01:36:10.885Z,18.73
2023-01-22T01:37:12.402Z,18.71
2023-01-22T01:38:13.842Z,18.78
2023-01-22T01:39:14.451Z,18.71
2023-01-22T01:40:15.045Z,18.73
2023-01-22T01:41:15.642Z,18.65
2023-01-22T01:42:16.336Z,18.71
2023-01-22T01:43:17.838Z,18.74
2023-01-22T01:44:18.409Z,18.62
2023-01-22T01:45:19.006Z,18.71
2023-01-22T01:46:19.624Z,18.68
2023-01-22T01:47:20.218Z,18.66
2023-01-22T01:48:20.813Z,18.63
2023-01-22T01:49:21.415Z,18.62
2023-01-22T01:50:22.012Z,18.66
2023-01-22T01:51:22.701Z,18.65
2023-01-22T01:52:23.299Z,18.60
2023-01-22T01:53:24.056Z,18.68
2023-01-22T01:54:24.645Z,18.62
2023-01-22T01:55:26.047Z,18.60
2023-01-22T01:56:26.643Z,18.60
2023-01-22T01:57:28.046Z,18.60
2023-01-22T01:58:28.728Z,18.68
2023-01-22T01:59:29.359Z,18.65
2023-01-22T02:00:29.974Z,18.65
2023-01-22T02:01:30.569Z,18.55
2023-01-22T02:02:31.166Z,18.63
2023-01-22T02:03:31.766Z,18.62
2023-01-22T02:04:32.363Z,18.58
2023-01-22T02:05:33.030Z,18.60
2023-01-22T02:06:33.623Z,18.65
2023-01-22T02:07:34.241Z,18.65
2023-01-22T02:08:34.820Z,18.59
2023-01-22T02:09:35.423Z,18.65
2023-01-22T02:10:36.020Z,18.58
2023-01-22T02:11:36.623Z,18.55
2023-01-22T02:12:37.220Z,18.55
2023-01-22T02:13:37.908Z,18.55
2023-01-22T02:14:38.486Z,18.50
2023-01-22T02:15:39.105Z,18.68
2023-01-22T02:16:39.747Z,18.62
2023-01-22T02:17:40.362Z,18.52
2023-01-22T02:18:40.955Z,18.68
2023-01-22T02:19:41.554Z,18.43
2023-01-22T02:20:42.149Z,18.53
2023-01-22T02:21:42.757Z,18.53
2023-01-22T02:22:43.363Z,18.59
2023-01-22T02:23:43.965Z,18.58
2023-01-22T02:24:44.564Z,18.53
2023-01-22T02:25:45.164Z,18.49
2023-01-22T02:26:45.789Z,18.56
2023-01-22T02:27:46.376Z,18.50
2023-01-22T02:28:47.056Z,18.53
2023-01-22T02:29:47.632Z,18.52
2023-01-22T02:30:48.262Z,18.44
2023-01-22T02:31:48.897Z,18.53
2023-01-22T02:32:49.509Z,18.55
2023-01-22T02:33:50.113Z,18.47
2023-01-22T02:34:50.706Z,18.52
2023-01-22T02:35:51.312Z,18.50
2023-01-22T02:36:51.977Z,18.56
2023-01-22T02:37:52.581Z,18.56
2023-01-22T02:38:53.176Z,18.56
2023-01-22T02:39:53.779Z,18.55
2023-01-22T02:40:54.372Z,18.52
2023-01-22T02:41:54.972Z,18.55
2023-01-22T02:42:55.564Z,18.47
2023-01-22T02:43:56.300Z,18.59
2023-01-22T02:44:56.891Z,18.45
2023-01-22T02:45:57.524Z,18.55
2023-01-22T02:46:58.118Z,18.47
2023-01-22T02:47:58.718Z,18.47
2023-01-22T02:49:00.114Z,18.43
2023-01-22T02:50:00.709Z,18.41
2023-01-22T02:51:01.351Z,18.44
2023-01-22T02:52:02.009Z,18.45
2023-01-22T02:53:02.600Z,18.44
2023-01-22T02:54:04.010Z,18.44
2023-01-22T02:55:04.598Z,18.45
2023-01-22T02:56:05.200Z,18.44
2023-01-22T02:57:05.945Z,18.45
2023-01-22T02:58:06.550Z,18.45
2023-01-22T02:59:07.237Z,18.41
2023-01-22T03:00:07.806Z,18.52
2023-01-22T03:01:08.541Z,18.44
2023-01-22T03:02:09.244Z,18.37
2023-01-22T03:03:09.848Z,18.43
2023-01-22T03:04:10.450Z,18.44
2023-01-22T03:05:11.043Z,18.38
2023-01-22T03:06:11.646Z,18.41
2023-01-22T03:07:12.238Z,18.44
2023-01-22T03:08:12.840Z,18.47
2023-01-22T03:09:13.434Z,18.45
2023-01-22T03:10:14.043Z,18.40
2023-01-22T03:11:14.630Z,18.43
2023-01-22T03:12:15.234Z,18.43
2023-01-22T03:13:16.628Z,18.40
2023-01-22T03:14:17.337Z,18.44
2023-01-22T03:15:18.750Z,18.40
2023-01-22T03:16:19.374Z,18.44
2023-01-22T03:17:19.966Z,18.37
2023-01-22T03:18:20.623Z,18.40
2023-01-22T03:19:21.221Z,18.37
2023-01-22T03:20:21.816Z,18.38
2023-01-22T03:21:22.424Z,18.49
2023-01-22T03:22:23.029Z,18.41
2023-01-22T03:23:23.631Z,18.44
2023-01-22T03:24:24.232Z,18.37
2023-01-22T03:25:24.830Z,18.37
2023-01-22T03:26:25.423Z,18.33
2023-01-22T03:27:26.025Z,18.40
2023-01-22T03:28:26.629Z,18.33
2023-01-22T03:29:33.176Z,18.33
2023-01-22T03:30:28.903Z,18.37
2023-01-22T03:31:29.622Z,18.35
2023-01-22T03:32:30.244Z,18.34
2023-01-22T03:33:30.864Z,18.34
2023-01-22T03:34:31.453Z,18.34
2023-01-22T03:35:32.120Z,18.35
2023-01-22T03:36:32.710Z,18.29
2023-01-22T03:37:33.315Z,18.29
2023-01-22T03:38:33.904Z,18.33
2023-01-22T03:39:34.508Z,18.33
2023-01-22T03:40:35.102Z,18.33
2023-01-22T03:41:35.704Z,18.29
2023-01-22T03:42:36.323Z,18.28
2023-01-22T03:43:36.977Z,18.26
2023-01-22T03:44:37.636Z,18.33
2023-01-22T03:45:38.427Z,18.26
2023-01-22T03:46:38.890Z,18.31
2023-01-22T03:47:39.496Z,18.25
2023-01-22T03:48:40.087Z,18.33
2023-01-22T03:49:40.744Z,18.28
2023-01-22T03:50:41.341Z,18.25
2023-01-22T03:51:41.942Z,18.26
2023-01-22T03:52:42.541Z,18.29
2023-01-22T03:53:44.055Z,18.26
2023-01-22T03:54:44.658Z,18.25
2023-01-22T03:55:45.258Z,18.33
2023-01-22T03:56:45.849Z,18.25
2023-01-22T03:57:46.501Z,18.28
2023-01-22T03:58:47.101Z,18.26
2023-01-22T03:59:47.698Z,18.26
2023-01-22T04:00:48.378Z,18.29
2023-01-22T04:01:48.965Z,18.26
2023-01-22T04:02:49.557Z,18.25
2023-01-22T04:03:50.210Z,18.20
2023-01-22T04:04:50.806Z,18.29
2023-01-22T04:05:51.405Z,18.25
2023-01-22T04:06:52.004Z,18.25
2023-01-22T04:07:53.476Z,18.22
2023-01-22T04:08:54.117Z,18.26
2023-01-22T04:09:54.720Z,18.23
2023-01-22T04:10:55.314Z,18.25
2023-01-22T04:11:55.923Z,18.22
2023-01-22T04:12:56.515Z,18.23
2023-01-22T04:13:57.112Z,18.18
2023-01-22T04:14:57.707Z,18.19
2023-01-22T04:15:59.248Z,18.15
2023-01-22T04:16:59.828Z,18.25
2023-01-22T04:18:00.430Z,18.19
2023-01-22T04:19:01.877Z,18.22
2023-01-22T04:20:02.478Z,18.25
2023-01-22T04:21:03.082Z,18.22
2023-01-22T04:22:03.746Z,18.22
2023-01-22T04:23:04.334Z,18.23
2023-01-22T04:24:04.937Z,18.25
2023-01-22T04:25:05.530Z,18.19
2023-01-22T04:26:06.132Z,18.20
2023-01-22T04:27:06.729Z,18.20
2023-01-22T04:28:07.330Z,18.13
2023-01-22T04:29:07.943Z,18.19
2023-01-22T04:30:08.545Z,18.18
2023-01-22T04:31:09.368Z,18.13
2023-01-22T04:32:09.800Z,18.18
2023-01-22T04:33:10.400Z,18.20
2023-01-22T04:34:10.996Z,18.20
2023-01-22T04:35:11.589Z,18.20
2023-01-22T04:36:12.194Z,18.22
2023-01-22T04:37:12.783Z,18.22
2023-01-22T04:38:13.391Z,18.22
2023-01-22T04:39:13.985Z,18.20
2023-01-22T04:40:14.584Z,18.22
2023-01-22T04:41:15.207Z,18.13
2023-01-22T04:42:15.800Z,18.11
2023-01-22T04:43:16.397Z,18.19
2023-01-22T04:44:17.804Z,18.23
2023-01-22T04:45:18.392Z,18.16
2023-01-22T04:46:19.175Z,18.13
2023-01-22T04:47:19.721Z,18.26
2023-01-22T04:48:20.322Z,18.08
2023-01-22T04:49:20.921Z,18.11
2023-01-22T04:50:21.519Z,18.04
2023-01-22T04:51:22.197Z,18.20
2023-01-22T04:52:22.807Z,18.10
2023-01-22T04:53:23.406Z,18.07
2023-01-22T04:54:24.056Z,18.10
2023-01-22T04:55:24.807Z,18.16
2023-01-22T04:56:25.404Z,18.07
2023-01-22T04:57:25.996Z,18.15
2023-01-22T04:58:26.601Z,18.08
2023-01-22T04:59:27.267Z,18.23
2023-01-22T05:00:27.874Z,18.13
2023-01-22T05:01:28.608Z,18.10
2023-01-22T05:02:30.069Z,18.26
2023-01-22T05:03:30.694Z,18.15
2023-01-22T05:04:31.295Z,18.15
2023-01-22T05:05:31.968Z,18.20
2023-01-22T05:06:32.630Z,18.07
2023-01-22T05:07:33.226Z,18.15
2023-01-22T05:08:33.827Z,18.11
2023-01-22T05:09:34.534Z,18.10
2023-01-22T05:10:35.129Z,18.13
2023-01-22T05:11:35.793Z,18.10
2023-01-22T05:12:36.396Z,18.16
2023-01-22T05:13:36.996Z,18.11
2023-01-22T05:14:37.599Z,18.13
2023-01-22T05:15:38.201Z,18.10
2023-01-22T05:16:38.879Z,18.13
2023-01-22T05:17:39.457Z,18.19
2023-01-22T05:18:40.059Z,18.20
2023-01-22T05:19:40.699Z,18.07
2023-01-22T05:20:41.306Z,18.07
2023-01-22T05:21:41.945Z,18.22
2023-01-22T05:22:42.545Z,18.10
2023-01-22T05:23:43.141Z,18.19
2023-01-22T05:24:43.742Z,18.05
2023-01-22T05:25:44.336Z,18.18
2023-01-22T05:26:44.987Z,18.15
2023-01-22T05:27:45.581Z,18.15
2023-01-22T05:28:46.183Z,18.10
2023-01-22T05:29:46.784Z,18.13
2023-01-22T05:30:47.529Z,18.16
2023-01-22T05:31:48.410Z,18.07
2023-01-22T05:32:48.846Z,18.16
2023-01-22T05:33:49.439Z,18.07
2023-01-22T05:34:50.040Z,18.10
2023-01-22T05:35:50.634Z,18.08
2023-01-22T05:36:51.235Z,18.05
2023-01-22T05:37:51.839Z,18.04
2023-01-22T05:38:52.520Z,18.05
2023-01-22T05:39:53.103Z,18.00
2023-01-22T05:40:53.708Z,18.05
2023-01-22T05:41:54.299Z,18.05
2023-01-22T05:42:54.905Z,18.04
2023-01-22T05:43:55.495Z,18.05
2023-01-22T05:44:56.098Z,17.97
2023-01-22T05:45:56.746Z,17.98
2023-01-22T05:46:57.422Z,18.01
2023-01-22T05:47:58.007Z,18.18
2023-01-22T05:48:58.608Z,18.03
2023-01-22T05:49:59.277Z,18.11
2023-01-22T05:50:59.916Z,18.04
2023-01-22T05:52:00.506Z,18.00
2023-01-22T05:53:01.119Z,18.01
2023-01-22T05:54:01.712Z,18.00
2023-01-22T05:55:02.309Z,17.94
2023-01-22T05:56:02.904Z,18.00
2023-01-22T05:57:03.521Z,18.03
2023-01-22T05:58:06.255Z,17.95
2023-01-22T05:59:05.697Z,17.95
2023-01-22T06:00:06.290Z,17.95
2023-01-22T06:01:06.892Z,17.97
2023-01-22T06:02:07.577Z,18.03
2023-01-22T06:03:08.148Z,18.03
2023-01-22T06:04:08.738Z,18.03
2023-01-22T06:05:09.364Z,18.00
2023-01-22T06:06:10.844Z,17.98
2023-01-22T06:07:11.449Z,18.04
2023-01-22T06:08:12.027Z,17.95
2023-01-22T06:09:12.684Z,17.94
2023-01-22T06:10:14.075Z,17.98
2023-01-22T06:11:14.743Z,18.00
2023-01-22T06:12:15.392Z,17.95
2023-01-22T06:13:16.059Z,18.00
2023-01-22T06:14:16.649Z,18.01
2023-01-22T06:15:17.259Z,18.00
2023-01-22T06:16:17.993Z,17.97
2023-01-22T06:17:18.671Z,18.00
2023-01-22T06:18:19.244Z,17.98
2023-01-22T06:19:19.850Z,18.00
2023-01-22T06:20:20.444Z,17.92
2023-01-22T06:21:21.046Z,17.90
2023-01-22T06:22:21.642Z,17.97
2023-01-22T06:23:22.245Z,17.89
2023-01-22T06:24:22.846Z,17.97
2023-01-22T06:25:23.442Z,17.95
2023-01-22T06:26:24.188Z,17.98
2023-01-22T06:27:24.795Z,17.95
2023-01-22T06:28:25.385Z,18.00
2023-01-22T06:29:26.031Z,17.97
2023-01-22T06:30:26.723Z,18.01
2023-01-22T06:31:27.460Z,17.97
2023-01-22T06:32:28.260Z,18.01
2023-01-22T06:33:28.907Z,18.00
2023-01-22T06:34:29.538Z,18.01
2023-01-22T06:35:30.139Z,18.00
2023-01-22T06:36:30.732Z,18.01
2023-01-22T06:37:31.342Z,18.00
2023-01-22T06:38:32.006Z,18.00
2023-01-22T06:39:32.601Z,17.97
2023-01-22T06:40:33.197Z,17.98
2023-01-22T06:41:33.807Z,17.97
2023-01-22T06:42:34.398Z,17.87
2023-01-22T06:43:35.052Z,17.85
2023-01-22T06:44:35.643Z,17.89
2023-01-22T06:45:36.247Z,17.85
2023-01-22T06:46:36.916Z,17.85
2023-01-22T06:47:37.602Z,17.86
2023-01-22T06:48:38.169Z,17.95
2023-01-22T06:49:38.776Z,17.83
2023-01-22T06:50:39.367Z,17.87
2023-01-22T06:51:39.972Z,17.90
2023-01-22T06:52:40.567Z,17.90
2023-01-22T06:53:41.171Z,17.82
2023-01-22T06:54:41.764Z,17.85
2023-01-22T06:55:42.371Z,17.87
2023-01-22T06:56:42.964Z,17.89
2023-01-22T06:57:43.631Z,17.92
2023-01-22T06:58:44.298Z,17.90
2023-01-22T06:59:44.972Z,17.86
2023-01-22T07:00:46.360Z,17.89
2023-01-22T07:01:47.007Z,17.92
2023-01-22T07:02:47.727Z,17.82
2023-01-22T07:03:48.350Z,17.86
2023-01-22T07:04:48.934Z,17.85
2023-01-22T07:05:49.533Z,17.89
2023-01-22T07:06:50.130Z,17.94
2023-01-22T07:07:50.729Z,17.94
2023-01-22T07:08:51.322Z,17.83
2023-01-22T07:09:51.978Z,17.92
2023-01-22T07:10:52.567Z,17.83
2023-01-22T07:11:53.169Z,17.90
2023-01-22T07:12:53.762Z,17.87
2023-01-22T07:13:54.366Z,17.86
2023-01-22T07:14:54.961Z,17.87
2023-01-22T07:15:55.604Z,17.86
2023-01-22T07:16:56.205Z,17.82
2023-01-22T07:17:56.923Z,17.86
2023-01-22T07:18:57.471Z,17.85
2023-01-22T07:19:58.076Z,17.82
2023-01-22T07:20:58.672Z,17.82
2023-01-22T07:21:59.271Z,17.86
2023-01-22T07:23:00.285Z,17.90
2023-01-22T07:24:00.965Z,17.83
2023-01-22T07:25:02.163Z,17.78
2023-01-22T07:26:02.862Z,17.82
2023-01-22T07:27:03.455Z,17.83
2023-01-22T07:28:04.050Z,17.86
2023-01-22T07:29:04.665Z,17.74
2023-01-22T07:30:05.305Z,17.80
2023-01-22T07:31:05.977Z,17.78
2023-01-22T07:32:06.601Z,17.87
2023-01-22T07:33:07.427Z,17.82
2023-01-22T07:34:08.005Z,17.76
2023-01-22T07:35:08.648Z,17.74
2023-01-22T07:36:09.300Z,17.83
2023-01-22T07:37:09.892Z,17.74
2023-01-22T07:38:10.486Z,17.71
2023-01-22T07:39:11.086Z,17.82
2023-01-22T07:40:11.678Z,17.78
2023-01-22T07:41:25.226Z,17.76
2023-01-22T07:42:13.931Z,17.76
2023-01-22T07:43:14.521Z,17.67
2023-01-22T07:44:15.113Z,17.70
2023-01-22T07:45:15.719Z,17.78
2023-01-22T07:46:16.365Z,17.74
2023-01-22T07:47:16.986Z,17.76
2023-01-22T07:48:17.736Z,17.72
2023-01-22T07:49:18.313Z,17.72
2023-01-22T07:50:19.095Z,17.74
2023-01-22T07:51:19.988Z,17.76
2023-01-22T07:52:20.576Z,17.70
2023-01-22T07:53:21.179Z,17.72
2023-01-22T07:54:21.783Z,17.74
2023-01-22T07:55:22.396Z,17.74
2023-01-22T07:56:22.989Z,17.71
2023-01-22T07:57:23.639Z,17.83
2023-01-22T07:58:24.233Z,17.76
2023-01-22T07:59:24.851Z,17.74
2023-01-22T08:00:25.452Z,17.71
2023-01-22T08:01:26.061Z,17.76
2023-01-22T08:02:26.682Z,17.78
2023-01-22T08:03:27.397Z,17.72
2023-01-22T08:04:27.937Z,17.76
2023-01-22T08:05:28.539Z,17.68
2023-01-22T08:06:29.134Z,17.76
2023-01-22T08:07:29.739Z,17.70
2023-01-22T08:08:30.334Z,17.76
2023-01-22T08:09:30.956Z,17.79
2023-01-22T08:10:31.530Z,17.71
2023-01-22T08:11:32.138Z,17.74
2023-01-22T08:12:32.726Z,17.74
2023-01-22T08:13:33.334Z,17.76
2023-01-22T08:14:33.983Z,17.76
2023-01-22T08:15:34.642Z,17.71
2023-01-22T08:16:35.250Z,17.71
2023-01-22T08:17:35.857Z,17.70
2023-01-22T08:18:36.542Z,17.78
2023-01-22T08:19:37.116Z,17.70
2023-01-22T08:20:37.707Z,17.74
2023-01-22T08:21:38.315Z,17.74
2023-01-22T08:22:38.900Z,17.74
2023-01-22T08:23:39.504Z,17.70
2023-01-22T08:24:40.095Z,17.74
2023-01-22T08:25:40.698Z,17.71
2023-01-22T08:26:41.292Z,17.72
2023-01-22T08:27:41.901Z,17.68
2023-01-22T08:28:42.495Z,17.65
2023-01-22T08:29:43.099Z,17.68
2023-01-22T08:30:46.803Z,17.67
2023-01-22T08:31:45.471Z,17.64
2023-01-22T08:32:46.121Z,17.65
2023-01-22T08:33:46.806Z,17.71
2023-01-22T08:34:47.389Z,17.70
2023-01-22T08:35:48.005Z,17.71
2023-01-22T08:36:48.584Z,17.68
2023-01-22T08:37:49.254Z,17.72
2023-01-22T08:38:49.946Z,17.67
2023-01-22T08:39:51.416Z,17.70
2023-01-22T08:40:52.004Z,17.64
2023-01-22T08:41:53.415Z,17.67
2023-01-22T08:42:54.012Z,17.68
2023-01-22T08:43:54.659Z,17.67
2023-01-22T08:44:55.247Z,17.71
2023-01-22T08:45:55.922Z,17.64
2023-01-22T08:46:56.523Z,17.65
2023-01-22T08:47:57.191Z,17.71
2023-01-22T08:48:57.870Z,17.64
2023-01-22T08:49:58.445Z,17.67
2023-01-22T08:50:59.075Z,17.63
2023-01-22T08:51:59.664Z,17.63
2023-01-22T08:53:00.253Z,17.60
2023-01-22T08:54:00.861Z,17.65
2023-01-22T08:55:01.453Z,17.71
2023-01-22T08:56:02.056Z,17.68
2023-01-22T08:57:02.652Z,17.65
2023-01-22T08:58:03.255Z,17.67
2023-01-22T08:59:03.851Z,17.67
2023-01-22T09:00:04.599Z,17.65
2023-01-22T09:01:05.205Z,17.60
2023-01-22T09:02:05.907Z,17.57
2023-01-22T09:03:06.525Z,17.63
2023-01-22T09:04:07.273Z,17.64
2023-01-22T09:05:07.850Z,17.65
2023-01-22T09:06:09.361Z,17.67
2023-01-22T09:07:10.027Z,17.72
2023-01-22T09:08:10.634Z,17.67
2023-01-22T09:09:11.221Z,17.65
2023-01-22T09:10:11.828Z,17.65
2023-01-22T09:11:12.420Z,17.64
2023-01-22T09:12:13.017Z,17.70
2023-01-22T09:13:13.611Z,17.64
2023-01-22T09:14:14.217Z,17.56
2023-01-22T09:15:14.805Z,17.54
2023-01-22T09:16:15.431Z,17.56
2023-01-22T09:17:16.028Z,17.60
2023-01-22T09:18:16.645Z,17.59
2023-01-22T09:19:18.173Z,17.59
2023-01-22T09:20:18.960Z,17.59
2023-01-22T09:21:19.734Z,17.59
2023-01-22T09:22:20.343Z,17.54
2023-01-22T09:23:20.924Z,17.52
2023-01-22T09:24:21.521Z,17.54
2023-01-22T09:25:22.125Z,17.63
2023-01-22T09:26:22.720Z,17.63
2023-01-22T09:27:23.388Z,17.57
2023-01-22T09:28:23.993Z,17.54
2023-01-22T09:29:24.585Z,17.57
2023-01-22T09:30:25.191Z,17.57
2023-01-22T09:31:25.818Z,17.63
2023-01-22T09:32:26.430Z,17.63
2023-01-22T09:33:27.019Z,17.67
2023-01-22T09:34:27.710Z,17.67
2023-01-22T09:35:28.291Z,17.67
2023-01-22T09:36:28.888Z,17.70
2023-01-22T09:37:29.482Z,17.65
2023-01-22T09:38:30.084Z,17.64
2023-01-22T09:39:30.728Z,17.70
2023-01-22T09:40:31.337Z,17.68
2023-01-22T09:41:31.927Z,17.59
2023-01-22T09:42:32.526Z,17.63
2023-01-22T09:43:33.124Z,17.63
2023-01-22T09:44:33.788Z,17.70
2023-01-22T09:45:34.475Z,17.70
2023-01-22T09:46:35.080Z,17.59
2023-01-22T09:47:36.523Z,17.64
2023-01-22T09:48:37.123Z,17.65
2023-01-22T09:49:37.799Z,17.68
2023-01-22T09:50:38.381Z,17.68
2023-01-22T09:51:38.974Z,17.70
2023-01-22T09:52:39.582Z,17.63
2023-01-22T09:53:40.246Z,17.68
2023-01-22T09:54:40.852Z,17.72
2023-01-22T09:55:41.444Z,17.67
2023-01-22T09:56:42.048Z,17.64
2023-01-22T09:57:42.648Z,17.71
2023-01-22T09:58:43.247Z,17.64
2023-01-22T09:59:43.844Z,17.65
2023-01-22T10:00:44.500Z,17.68
2023-01-22T10:01:45.089Z,17.65
2023-01-22T10:02:45.748Z,17.59
2023-01-22T10:03:46.385Z,17.65
2023-01-22T10:04:47.068Z,17.70
2023-01-22T10:05:47.646Z,17.71
2023-01-22T10:06:48.256Z,17.70
2023-01-22T10:07:48.850Z,17.64
2023-01-22T10:08:49.451Z,17.64
2023-01-22T10:09:50.045Z,17.65
2023-01-22T10:10:50.649Z,17.70
2023-01-22T10:11:51.246Z,17.63
2023-01-22T10:12:51.847Z,17.71
2023-01-22T10:13:52.441Z,17.67
2023-01-22T10:14:53.045Z,17.68
2023-01-22T10:15:53.642Z,17.63
2023-01-22T10:16:54.266Z,17.70
2023-01-22T10:17:54.860Z,17.67
2023-01-22T10:18:56.877Z,17.67
2023-01-22T10:19:57.133Z,17.70
2023-01-22T10:20:57.706Z,17.68
2023-01-22T10:21:58.304Z,17.70
2023-01-22T10:22:58.906Z,17.71
2023-01-22T10:24:00.351Z,17.72
2023-01-22T10:25:00.961Z,17.65
2023-01-22T10:26:01.609Z,17.68
2023-01-22T10:27:02.276Z,17.68
2023-01-22T10:28:02.868Z,17.70
2023-01-22T10:29:03.476Z,17.68
2023-01-22T10:30:04.068Z,17.68
2023-01-22T10:31:04.721Z,17.74
2023-01-22T10:32:05.325Z,17.72
2023-01-22T10:33:05.930Z,17.64
2023-01-22T10:34:06.521Z,17.74
2023-01-22T10:35:07.208Z,17.74
2023-01-22T10:36:07.787Z,17.68
2023-01-22T10:37:08.388Z,17.70
2023-01-22T10:38:08.984Z,17.74
2023-01-22T10:39:09.586Z,17.74
2023-01-22T10:40:10.181Z,17.67
2023-01-22T10:41:10.784Z,17.72
2023-01-22T10:42:11.375Z,17.71
2023-01-22T10:43:11.979Z,17.72
2023-01-22T10:44:12.644Z,17.71
2023-01-22T10:45:13.246Z,17.74
2023-01-22T10:46:13.912Z,17.74
2023-01-22T10:47:14.529Z,17.70
2023-01-22T10:48:15.129Z,17.74
2023-01-22T10:49:15.728Z,17.74
2023-01-22T10:50:16.464Z,17.72
2023-01-22T10:51:17.041Z,17.76
2023-01-22T10:52:18.443Z,17.68
2023-01-22T10:53:19.897Z,17.74
2023-01-22T10:54:20.492Z,17.74
2023-01-22T10:55:21.097Z,17.70
2023-01-22T10:56:21.765Z,17.71
2023-01-22T10:57:22.520Z,17.71
2023-01-22T10:58:23.158Z,17.71
2023-01-22T10:59:23.854Z,17.70
2023-01-22T11:00:24.444Z,17.71
2023-01-22T11:01:25.062Z,17.72
2023-01-22T11:02:25.690Z,17.74
2023-01-22T11:03:26.286Z,17.76
2023-01-22T11:04:26.935Z,17.76
2023-01-22T11:05:27.678Z,17.71
2023-01-22T11:06:28.269Z,17.74
2023-01-22T11:07:32.447Z,17.76
2023-01-22T11:08:30.444Z,17.71
2023-01-22T11:09:31.035Z,17.72
2023-01-22T11:10:31.629Z,17.78
2023-01-22T11:11:32.436Z,17.71
2023-01-22T11:12:33.046Z,17.72
2023-01-22T11:13:33.877Z,17.76
2023-01-22T11:14:34.545Z,17.76
2023-01-22T11:15:35.163Z,17.74
2023-01-22T11:16:35.763Z,17.74
2023-01-22T11:17:36.361Z,17.79
2023-01-22T11:18:37.030Z,17.79
2023-01-22T11:19:37.803Z,17.72
2023-01-22T11:20:38.485Z,17.76
2023-01-22T11:21:39.073Z,17.72
2023-01-22T11:22:39.658Z,17.76
2023-01-22T11:23:40.259Z,17.76
2023-01-22T11:24:40.852Z,17.72
2023-01-22T11:25:41.459Z,17.71
2023-01-22T11:26:42.052Z,17.70
2023-01-22T11:27:42.718Z,17.72
2023-01-22T11:28:43.325Z,17.78
2023-01-22T11:29:43.977Z,17.68
2023-01-22T11:30:44.643Z,17.67
2023-01-22T11:31:45.280Z,17.71
2023-01-22T11:32:45.868Z,17.78
2023-01-22T11:33:46.467Z,17.71
2023-01-22T11:34:47.062Z,17.68
2023-01-22T11:35:47.746Z,17.72
2023-01-22T11:36:48.603Z,17.78
2023-01-22T11:37:49.205Z,17.74
2023-01-22T11:38:49.800Z,17.74
2023-01-22T11:39:50.408Z,17.76
2023-01-22T11:40:51.007Z,17.70
2023-01-22T11:41:51.600Z,17.72
2023-01-22T11:42:52.196Z,17.78
2023-01-22T11:43:52.798Z,17.76
2023-01-22T11:44:53.401Z,17.72
2023-01-22T11:45:54.039Z,17.68
2023-01-22T11:46:54.636Z,17.70
2023-01-22T11:47:55.241Z,17.67
2023-01-22T11:48:55.876Z,17.72
2023-01-22T11:49:56.480Z,17.67
2023-01-22T11:50:57.274Z,17.68
2023-01-22T11:51:57.789Z,17.71
2023-01-22T11:52:58.389Z,17.70
2023-01-22T11:53:58.983Z,17.71
2023-01-22T11:55:00.441Z,17.68
2023-01-22T11:56:01.037Z,17.74
2023-01-22T11:57:01.634Z,17.68
2023-01-22T11:58:02.227Z,17.67
2023-01-22T11:59:02.881Z,17.68
2023-01-22T12:00:03.478Z,17.68
2023-01-22T12:01:04.081Z,17.67
2023-01-22T12:02:04.676Z,17.64
2023-01-22T12:03:05.278Z,17.70
2023-01-22T12:04:05.950Z,17.68
2023-01-22T12:05:06.672Z,17.68
2023-01-22T12:06:07.350Z,17.70
2023-01-22T12:07:07.933Z,17.64
2023-01-22T12:08:08.775Z,17.64
2023-01-22T12:09:09.377Z,17.65
2023-01-22T12:10:10.072Z,17.65
2023-01-22T12:11:10.676Z,17.65
2023-01-22T12:12:11.266Z,17.67
2023-01-22T12:13:11.870Z,17.64
2023-01-22T12:14:12.463Z,17.63
2023-01-22T12:15:13.067Z,17.70
2023-01-22T12:16:13.680Z,17.59
2023-01-22T12:17:14.298Z,17.60
2023-01-22T12:18:14.894Z,17.63
2023-01-22T12:19:15.503Z,17.67
2023-01-22T12:20:16.375Z,17.68
2023-01-22T12:21:17.413Z,17.70
2023-01-22T12:22:17.988Z,17.67
2023-01-22T12:23:18.660Z,17.60
2023-01-22T12:24:19.249Z,17.67
2023-01-22T12:25:19.850Z,17.63
2023-01-22T12:26:20.447Z,17.72
2023-01-22T12:27:21.051Z,17.71
2023-01-22T12:28:21.653Z,17.71
2023-01-22T12:29:22.250Z,17.63
2023-01-22T12:30:23.700Z,17.70
2023-01-22T12:31:25.209Z,17.67
2023-01-22T12:32:25.763Z,17.68
2023-01-22T12:33:26.373Z,17.67
2023-01-22T12:34:27.114Z,17.74
2023-01-22T12:35:27.718Z,17.67
2023-01-22T12:36:28.430Z,17.68
2023-01-22T12:37:28.977Z,17.67
2023-01-22T12:38:29.671Z,17.72
2023-01-22T12:39:30.249Z,17.72
2023-01-22T12:40:30.845Z,17.80
2023-01-22T12:41:31.451Z,17.71
2023-01-22T12:42:32.044Z,17.71
2023-01-22T12:43:32.648Z,17.64
2023-01-22T12:44:33.244Z,17.74
2023-01-22T12:45:33.847Z,17.70
2023-01-22T12:46:34.467Z,17.72
2023-01-22T12:47:35.106Z,17.71
2023-01-22T12:48:35.712Z,17.72
2023-01-22T12:49:36.300Z,17.79
2023-01-22T12:50:36.900Z,17.74
2023-01-22T12:51:37.600Z,17.70
2023-01-22T12:52:39.013Z,17.70
2023-01-22T12:53:39.617Z,17.71
2023-01-22T12:54:40.362Z,17.71
2023-01-22T12:55:42.642Z,17.72
2023-01-22T12:56:42.552Z,17.74
2023-01-22T12:57:43.164Z,17.70
2023-01-22T12:58:43.751Z,17.70
2023-01-22T12:59:44.361Z,17.70
2023-01-22T13:00:45.011Z,17.72